Time;durP1;ratioP1;P1;durP2;ratioP2;P2;SDS_P1;SDS_P2;PMS_P1;PMS_P2;Temp;Humidity;BMP_temperature;BMP_pressure;BME280_temperature;BME280_humidity;BME280_pressure;Samples;Min_cycle;Max_cycle;Signal;HPM_P1;HPM_P2
2023/07/12 00:00:02;;;;;;;3.95;2.17;;;19.70;99.90;;;;;;5016655;28;20127;-56
2023/07/12 00:02:28;;;;;;;5.30;2.35;;;19.60;99.90;;;;;;5016734;28;20416;-55
2023/07/12 00:04:54;;;;;;;5.22;2.63;;;19.60;99.90;;;;;;5016359;28;20041;-53
2023/07/12 00:07:21;;;;;;;3.28;1.95;;;19.60;99.90;;;;;;5014733;28;20072;-55
2023/07/12 00:09:47;;;;;;;3.13;2.17;;;19.50;99.90;;;;;;5007988;28;20058;-54
2023/07/12 00:12:12;;;;;;;3.15;2.28;;;19.50;99.90;;;;;;5017689;28;21573;-55
2023/07/12 00:14:38;;;;;;;6.10;2.30;;;19.50;99.90;;;;;;5017785;28;20049;-56
2023/07/12 00:17:04;;;;;;;3.67;2.22;;;19.50;99.90;;;;;;5016055;28;20044;-56
2023/07/12 00:19:29;;;;;;;4.53;2.20;;;19.50;99.90;;;;;;5006831;28;20095;-56
2023/07/12 00:21:55;;;;;;;5.80;2.60;;;19.50;99.90;;;;;;5015805;28;20092;-56
2023/07/12 00:24:22;;;;;;;4.70;2.47;;;19.40;99.90;;;;;;5000830;28;20060;-55
2023/07/12 00:26:47;;;;;;;3.60;2.55;;;19.40;99.90;;;;;;5017632;28;20089;-54
2023/07/12 00:29:13;;;;;;;6.90;2.40;;;19.40;99.90;;;;;;5017837;28;20049;-56
2023/07/12 00:31:39;;;;;;;4.18;2.40;;;19.40;99.90;;;;;;5001598;28;20042;-56
2023/07/12 00:34:05;;;;;;;6.40;2.80;;;19.40;99.90;;;;;;5016735;28;20049;-55
2023/07/12 00:36:32;;;;;;;5.72;2.25;;;19.40;99.90;;;;;;5015388;28;20041;-54
2023/07/12 00:39:00;;;;;;;7.57;2.63;;;19.40;99.90;;;;;;5016927;28;20045;-54
2023/07/12 00:41:49;;;;;;;4.63;2.50;;;19.30;99.90;;;;;;5021368;28;20048;-55
2023/07/12 00:44:21;;;;;;;3.92;2.53;;;19.30;99.90;;;;;;5021006;28;20107;-55
2023/07/12 00:46:53;;;;;;;3.33;2.28;;;19.30;99.90;;;;;;5019027;28;20676;-55
2023/07/12 00:49:19;;;;;;;5.13;2.60;;;19.30;99.90;;;;;;5017316;28;20056;-56
2023/07/12 00:52:00;;;;;;;6.10;2.30;;;19.20;99.90;;;;;;5000622;28;20041;-56
2023/07/12 00:54:46;;;;;;;4.72;2.60;;;19.30;99.90;;;;;;5013064;28;20068;-54
2023/07/12 00:57:12;;;;;;;3.33;2.38;;;19.20;99.90;;;;;;5016466;28;20041;-56
2023/07/12 00:59:39;;;;;;;6.53;2.70;;;19.20;99.90;;;;;;4999793;28;20049;-56
2023/07/12 01:02:05;;;;;;;6.00;2.95;;;19.20;99.90;;;;;;5009279;28;20111;-55
2023/07/12 01:04:42;;;;;;;4.57;2.70;;;19.20;99.90;;;;;;5012468;28;20057;-55
2023/07/12 01:07:09;;;;;;;3.38;2.50;;;19.10;99.90;;;;;;4994558;28;20541;-55
2023/07/12 01:09:35;;;;;;;6.43;2.60;;;19.10;99.90;;;;;;5017174;28;20399;-54
2023/07/12 01:12:01;;;;;;;4.70;2.58;;;19.10;99.90;;;;;;5014459;28;20045;-56
2023/07/12 01:14:27;;;;;;;7.03;3.05;;;19.10;99.90;;;;;;5016648;28;20045;-55
2023/07/12 01:17:03;;;;;;;5.70;2.45;;;19.10;99.90;;;;;;5015951;28;20041;-56
2023/07/12 01:19:31;;;;;;;8.30;2.70;;;19.10;99.90;;;;;;5004411;28;20048;-56
2023/07/12 01:21:57;;;;;;;4.70;2.65;;;19.10;99.90;;;;;;5013175;28;20053;-56
2023/07/12 01:24:25;;;;;;;5.55;2.65;;;19.00;99.90;;;;;;5013237;28;20049;-56
2023/07/12 01:26:57;;;;;;;6.38;3.13;;;19.00;99.90;;;;;;5013691;28;20092;-53
2023/07/12 01:29:24;;;;;;;4.28;2.58;;;19.00;99.90;;;;;;5016204;28;20492;-55
2023/07/12 01:31:50;;;;;;;5.28;2.70;;;19.00;99.90;;;;;;5015321;28;20042;-54
2023/07/12 01:34:17;;;;;;;5.13;2.72;;;19.00;99.90;;;;;;5016286;28;20051;-56
2023/07/12 01:36:44;;;;;;;4.68;2.80;;;19.00;99.90;;;;;;5013786;28;20073;-54
2023/07/12 01:39:10;;;;;;;4.93;2.80;;;18.90;99.90;;;;;;5015662;28;20522;-55
2023/07/12 01:41:36;;;;;;;8.00;3.72;;;18.90;99.90;;;;;;5016651;28;20128;-55
2023/07/12 01:44:02;;;;;;;5.05;3.10;;;18.90;99.90;;;;;;5017679;28;20045;-56
2023/07/12 01:46:28;;;;;;;4.43;2.70;;;18.80;99.90;;;;;;5000756;28;20048;-56
2023/07/12 01:48:54;;;;;;;6.03;2.95;;;18.80;99.90;;;;;;5014235;28;20060;-55
2023/07/12 01:51:20;;;;;;;5.53;2.90;;;18.80;99.90;;;;;;5015068;28;20045;-56
2023/07/12 01:53:47;;;;;;;4.70;2.97;;;18.70;99.90;;;;;;5016558;28;20045;-54
2023/07/12 01:56:14;;;;;;;5.88;2.88;;;18.70;99.90;;;;;;4989768;28;20183;-53
2023/07/12 01:58:40;;;;;;;5.15;3.05;;;18.70;99.90;;;;;;5010432;28;20053;-53
2023/07/12 02:01:05;;;;;;;5.75;3.20;;;18.70;99.90;;;;;;5015021;28;20405;-56
2023/07/12 02:03:31;;;;;;;7.60;3.33;;;18.60;99.90;;;;;;5008587;28;20053;-56
2023/07/12 02:05:58;;;;;;;6.22;3.08;;;18.60;99.90;;;;;;5012579;28;20108;-55
2023/07/12 02:08:24;;;;;;;6.07;3.28;;;18.60;99.90;;;;;;5012127;28;20107;-54
2023/07/12 02:10:50;;;;;;;5.82;3.50;;;18.60;99.90;;;;;;5011721;28;20045;-54
2023/07/12 02:13:17;;;;;;;6.10;3.45;;;18.50;99.90;;;;;;5012471;28;20041;-56
2023/07/12 02:15:44;;;;;;;12.00;3.72;;;18.50;99.90;;;;;;5012856;28;20045;-56
2023/07/12 02:18:10;;;;;;;8.07;3.67;;;18.50;99.90;;;;;;5014259;28;20045;-55
2023/07/12 02:20:36;;;;;;;9.10;4.13;;;18.50;99.90;;;;;;5013597;28;20057;-56
2023/07/12 02:23:02;;;;;;;6.97;3.55;;;18.40;99.90;;;;;;5016282;28;20470;-55
2023/07/12 02:25:28;;;;;;;8.48;3.65;;;18.40;99.90;;;;;;5010657;28;20467;-56
2023/07/12 02:27:54;;;;;;;10.70;3.63;;;18.30;99.90;;;;;;5009065;28;20054;-55
2023/07/12 02:30:25;;;;;;;7.25;3.63;;;18.40;99.90;;;;;;5009270;28;20448;-55
2023/07/12 02:32:52;;;;;;;8.98;3.72;;;18.30;99.90;;;;;;5017453;28;20034;-55
2023/07/12 02:35:20;;;;;;;8.63;3.80;;;18.30;99.90;;;;;;5015222;28;20060;-55
2023/07/12 02:37:46;;;;;;;10.52;3.92;;;18.30;99.90;;;;;;4998940;28;20102;-56
2023/07/12 02:40:14;;;;;;;9.73;4.10;;;18.30;99.90;;;;;;5002141;28;20099;-54
2023/07/12 02:42:41;;;;;;;8.95;4.35;;;18.30;99.90;;;;;;5000933;28;20061;-55
2023/07/12 02:45:08;;;;;;;8.80;3.95;;;18.30;99.90;;;;;;5005241;28;20519;-55
2023/07/12 02:47:34;;;;;;;10.10;4.00;;;18.20;99.90;;;;;;5016703;28;20554;-55
2023/07/12 02:49:59;;;;;;;8.57;4.25;;;18.20;99.90;;;;;;5017617;28;20037;-56
2023/07/12 02:52:25;;;;;;;11.05;4.40;;;18.20;99.90;;;;;;5010885;28;20041;-54
2023/07/12 02:54:51;;;;;;;12.98;4.30;;;18.20;99.90;;;;;;5013444;28;20045;-54
2023/07/12 02:57:17;;;;;;;8.90;4.65;;;18.20;99.90;;;;;;5015757;28;20436;-55
2023/07/12 02:59:43;;;;;;;9.60;4.28;;;18.20;99.90;;;;;;5013765;28;20048;-55
2023/07/12 03:02:10;;;;;;;10.50;4.57;;;18.10;99.90;;;;;;4995890;28;20049;-54
2023/07/12 03:04:36;;;;;;;7.85;4.03;;;18.10;99.90;;;;;;5017011;28;20496;-54
2023/07/12 03:07:02;;;;;;;9.43;4.30;;;18.10;99.90;;;;;;5017867;28;20160;-56
2023/07/12 03:09:29;;;;;;;14.45;4.80;;;18.00;99.90;;;;;;5018450;28;20072;-56
2023/07/12 03:11:55;;;;;;;10.65;4.65;;;18.00;99.90;;;;;;5020517;28;20112;-55
2023/07/12 03:14:22;;;;;;;14.63;4.50;;;18.00;99.90;;;;;;5015178;28;20606;-56
2023/07/12 03:16:48;;;;;;;14.45;4.10;;;17.90;99.90;;;;;;5017506;28;20050;-55
2023/07/12 03:19:16;;;;;;;11.93;4.50;;;17.90;99.90;;;;;;5016299;28;20049;-55
2023/07/12 03:21:42;;;;;;;8.95;4.13;;;17.90;99.90;;;;;;5016591;28;20048;-56
2023/07/12 03:24:09;;;;;;;14.98;3.95;;;17.90;99.90;;;;;;5016014;28;20049;-56
2023/07/12 03:26:36;;;;;;;13.98;4.40;;;17.90;99.90;;;;;;5016766;28;20096;-53
2023/07/12 03:29:02;;;;;;;15.48;4.18;;;17.90;99.90;;;;;;5016472;28;20089;-56
2023/07/12 03:31:28;;;;;;;9.27;3.78;;;17.90;99.90;;;;;;5004304;28;20041;-56
2023/07/12 03:33:55;;;;;;;14.23;4.22;;;17.90;99.90;;;;;;5015761;28;20034;-56
2023/07/12 03:36:24;;;;;;;11.52;4.45;;;17.90;99.90;;;;;;5015406;28;20176;-54
2023/07/12 03:38:51;;;;;;;13.82;3.97;;;17.80;99.90;;;;;;5009276;28;20049;-56
2023/07/12 03:41:18;;;;;;;10.07;4.07;;;17.80;99.90;;;;;;5017769;28;20053;-56
2023/07/12 03:43:43;;;;;;;12.70;4.45;;;17.80;99.90;;;;;;5000158;28;20037;-55
2023/07/12 03:46:09;;;;;;;15.00;4.53;;;17.80;99.90;;;;;;5017730;28;20178;-56
2023/07/12 03:48:35;;;;;;;14.93;4.90;;;17.80;99.90;;;;;;5016097;28;20052;-56
2023/07/12 03:51:01;;;;;;;12.23;4.70;;;17.70;99.90;;;;;;5019192;28;20037;-56
2023/07/12 03:53:28;;;;;;;11.10;4.47;;;17.70;99.90;;;;;;5018047;28;20124;-55
2023/07/12 03:55:58;;;;;;;14.55;4.55;;;17.70;99.90;;;;;;5013406;28;20037;-55
2023/07/12 03:58:30;;;;;;;14.25;4.45;;;17.70;99.90;;;;;;5017421;28;20129;-55
2023/07/12 04:00:56;;;;;;;18.38;5.03;;;17.70;99.90;;;;;;5011852;28;20049;-54
2023/07/12 04:03:22;;;;;;;16.17;4.57;;;17.70;99.90;;;;;;4992937;28;20065;-55
2023/07/12 04:05:51;;;;;;;13.82;4.53;;;17.70;99.90;;;;;;5015812;28;20072;-56
2023/07/12 04:08:17;;;;;;;12.02;4.50;;;17.70;99.90;;;;;;5014667;28;20121;-54
2023/07/12 04:10:43;;;;;;;15.82;4.50;;;17.70;99.90;;;;;;5014316;28;20046;-55
2023/07/12 04:13:09;;;;;;;16.42;4.75;;;17.70;99.90;;;;;;4996798;28;20126;-55
2023/07/12 04:15:36;;;;;;;14.27;4.57;;;17.70;99.90;;;;;;5015567;28;20037;-54
2023/07/12 04:18:03;;;;;;;14.13;4.75;;;17.70;99.90;;;;;;5016796;28;20048;-56
2023/07/12 04:20:30;;;;;;;14.05;4.32;;;17.70;99.90;;;;;;5012656;28;20056;-57
2023/07/12 04:22:55;;;;;;;14.57;4.38;;;17.70;99.90;;;;;;4994260;28;21002;-56
2023/07/12 04:25:21;;;;;;;17.40;4.68;;;17.70;99.90;;;;;;5014969;28;20063;-56
2023/07/12 04:27:47;;;;;;;15.63;5.00;;;17.70;99.90;;;;;;5016237;28;20108;-56
2023/07/12 04:30:15;;;;;;;13.98;4.43;;;17.70;99.90;;;;;;5021022;28;20042;-55
2023/07/12 04:32:41;;;;;;;11.35;4.28;;;17.70;99.90;;;;;;5013049;28;20056;-54
2023/07/12 04:35:08;;;;;;;14.48;4.78;;;17.70;99.90;;;;;;5017502;28;20428;-56
2023/07/12 04:37:34;;;;;;;16.40;4.18;;;17.70;99.90;;;;;;4999319;28;20037;-55
2023/07/12 04:40:00;;;;;;;12.55;4.47;;;17.70;99.90;;;;;;5020141;28;20137;-56
2023/07/12 04:42:26;;;;;;;16.10;4.32;;;17.70;99.90;;;;;;5007899;28;20542;-57
2023/07/12 04:44:52;;;;;;;15.90;4.68;;;17.60;99.90;;;;;;5017726;28;20125;-56
2023/07/12 04:47:18;;;;;;;15.13;4.38;;;17.60;99.90;;;;;;5003117;28;20045;-55
2023/07/12 04:49:44;;;;;;;13.30;4.60;;;17.60;99.90;;;;;;4999157;28;21392;-56
2023/07/12 04:52:13;;;;;;;11.85;4.82;;;17.60;99.90;;;;;;5015528;28;20148;-56
2023/07/12 04:54:40;;;;;;;14.90;4.82;;;17.60;99.90;;;;;;5015942;28;20045;-55
2023/07/12 04:57:07;;;;;;;18.67;4.88;;;17.60;99.90;;;;;;5017229;28;20046;-57
2023/07/12 04:59:33;;;;;;;17.65;4.88;;;17.60;99.90;;;;;;5017397;28;20120;-56
2023/07/12 05:01:59;;;;;;;21.55;5.30;;;17.60;99.90;;;;;;5015661;28;20128;-56
2023/07/12 05:04:24;;;;;;;18.52;5.38;;;17.60;99.90;;;;;;4983176;28;20056;-56
2023/07/12 05:06:51;;;;;;;21.05;5.45;;;17.60;99.90;;;;;;5015918;28;20126;-57
2023/07/12 05:09:21;;;;;;;11.90;5.05;;;17.70;99.90;;;;;;5018021;28;20046;-56
2023/07/12 05:11:47;;;;;;;13.32;4.88;;;17.70;99.90;;;;;;5014580;28;20041;-54
2023/07/12 05:14:13;;;;;;;16.80;5.18;;;17.70;99.90;;;;;;5015088;28;20077;-56
2023/07/12 05:16:39;;;;;;;19.00;6.10;;;17.70;99.90;;;;;;5015219;28;20061;-56
2023/07/12 05:19:04;;;;;;;15.80;5.53;;;17.70;99.90;;;;;;5014270;28;20049;-56
2023/07/12 05:21:30;;;;;;;19.33;6.20;;;17.80;99.90;;;;;;5014330;28;20045;-54
2023/07/12 05:23:56;;;;;;;13.88;5.85;;;17.80;99.90;;;;;;5012865;28;20041;-54
2023/07/12 05:26:22;;;;;;;15.13;5.80;;;17.90;99.90;;;;;;5002783;28;20053;-56
2023/07/12 05:28:48;;;;;;;16.55;5.85;;;17.90;99.90;;;;;;5012238;28;20041;-56
2023/07/12 05:31:14;;;;;;;17.02;5.53;;;18.00;99.90;;;;;;5013470;28;20037;-55
2023/07/12 05:33:43;;;;;;;15.13;6.00;;;18.10;99.90;;;;;;5006307;28;20057;-53
2023/07/12 05:36:09;;;;;;;15.65;5.60;;;18.10;99.90;;;;;;5010761;28;20053;-56
2023/07/12 05:38:35;;;;;;;18.10;5.60;;;18.10;99.90;;;;;;5011592;28;20822;-54
2023/07/12 05:41:01;;;;;;;21.75;5.97;;;18.10;99.90;;;;;;4999326;28;20107;-55
2023/07/12 05:43:27;;;;;;;21.17;5.90;;;18.20;99.90;;;;;;4998021;28;20041;-55
2023/07/12 05:45:53;;;;;;;20.00;5.80;;;18.20;99.90;;;;;;5014598;28;20049;-56
2023/07/12 05:48:19;;;;;;;23.92;5.65;;;18.30;99.90;;;;;;4998747;28;20045;-56
2023/07/12 05:50:58;;;;;;;17.58;5.80;;;18.30;99.90;;;;;;5014749;28;20041;-55
2023/07/12 05:53:23;;;;;;;16.52;5.47;;;18.30;99.90;;;;;;4995745;28;20156;-55
2023/07/12 05:56:01;;;;;;;17.80;5.43;;;18.40;99.90;;;;;;5011493;28;20045;-55
2023/07/12 05:58:27;;;;;;;17.83;6.45;;;18.40;99.90;;;;;;5012593;28;20191;-55
2023/07/12 06:01:00;;;;;;;19.27;5.80;;;18.40;99.90;;;;;;4981319;28;20410;-53
2023/07/12 06:03:28;;;;;;;19.23;5.18;;;18.40;99.90;;;;;;5007332;28;20034;-55
2023/07/12 06:05:54;;;;;;;18.67;5.32;;;18.30;99.90;;;;;;5014290;28;20053;-54
2023/07/12 06:08:20;;;;;;;21.48;5.40;;;18.30;99.90;;;;;;5009886;28;20372;-54
2023/07/12 06:10:47;;;;;;;19.92;5.50;;;18.30;99.90;;;;;;5013605;28;20045;-54
2023/07/12 06:13:13;;;;;;;22.17;4.80;;;18.30;99.90;;;;;;5003326;28;22690;-56
2023/07/12 06:15:39;;;;;;;13.73;4.75;;;18.40;99.90;;;;;;5011007;28;20076;-53
2023/07/12 06:18:05;;;;;;;18.73;4.85;;;18.40;99.90;;;;;;5013044;28;20123;-54
2023/07/12 06:20:31;;;;;;;27.35;5.15;;;18.40;99.90;;;;;;5015186;28;20377;-53
2023/07/12 06:22:57;;;;;;;19.65;5.30;;;18.50;99.90;;;;;;5016045;28;20045;-56
2023/07/12 06:25:24;;;;;;;17.70;5.18;;;18.60;99.90;;;;;;5015076;28;20092;-55
2023/07/12 06:27:49;;;;;;;20.92;4.65;;;18.60;99.90;;;;;;5017796;28;20087;-57
2023/07/12 06:30:17;;;;;;;16.52;4.80;;;18.60;99.90;;;;;;5015909;28;20485;-56
2023/07/12 06:32:42;;;;;;;19.30;5.15;;;18.70;99.90;;;;;;5013619;28;20399;-57
2023/07/12 06:35:09;;;;;;;20.58;5.45;;;18.80;99.90;;;;;;5013851;28;20036;-54
2023/07/12 06:37:34;;;;;;;18.75;4.72;;;19.00;99.90;;;;;;5011659;28;20053;-56
2023/07/12 06:40:00;;;;;;;17.40;4.88;;;19.00;99.90;;;;;;5015081;28;20069;-56
2023/07/12 06:42:26;;;;;;;16.88;4.70;;;19.10;99.90;;;;;;5016543;28;20049;-55
2023/07/12 06:44:52;;;;;;;18.13;4.55;;;19.10;99.90;;;;;;5006063;28;20514;-56
2023/07/12 06:47:17;;;;;;;16.80;5.00;;;19.20;99.90;;;;;;5016194;28;22304;-56
2023/07/12 06:49:43;;;;;;;19.55;5.93;;;19.20;99.90;;;;;;5006742;28;20037;-55
2023/07/12 06:52:10;;;;;;;18.13;5.32;;;19.30;99.90;;;;;;5015590;28;20049;-56
2023/07/12 06:54:36;;;;;;;18.33;5.03;;;19.40;99.90;;;;;;5016446;28;20052;-55
2023/07/12 06:57:02;;;;;;;18.30;5.90;;;19.60;99.90;;;;;;5014955;28;20053;-55
2023/07/12 06:59:28;;;;;;;14.20;4.90;;;19.80;99.90;;;;;;5016086;28;20052;-56
2023/07/12 07:01:53;;;;;;;18.20;4.40;;;20.00;99.90;;;;;;5015213;28;20099;-57
2023/07/12 07:04:19;;;;;;;19.27;5.03;;;20.10;99.90;;;;;;5017330;28;20419;-55
2023/07/12 07:06:45;;;;;;;15.07;4.90;;;20.20;99.90;;;;;;5014320;28;20128;-56
2023/07/12 07:09:11;;;;;;;15.20;4.10;;;20.20;99.90;;;;;;5014883;28;20037;-56
2023/07/12 07:11:37;;;;;;;15.00;4.53;;;20.10;99.90;;;;;;5014371;28;20048;-54
2023/07/12 07:14:03;;;;;;;21.92;4.15;;;20.00;99.90;;;;;;5016841;28;20057;-54
2023/07/12 07:16:29;;;;;;;13.40;4.32;;;20.00;99.90;;;;;;5018241;28;20088;-55
2023/07/12 07:18:56;;;;;;;9.55;3.53;;;19.90;99.90;;;;;;5018487;28;20052;-55
2023/07/12 07:21:22;;;;;;;15.50;3.97;;;19.90;99.90;;;;;;5015856;28;20037;-55
2023/07/12 07:23:48;;;;;;;13.50;4.07;;;19.90;99.90;;;;;;5017648;28;20056;-54
2023/07/12 07:26:14;;;;;;;13.55;3.67;;;20.00;99.90;;;;;;5013406;28;20516;-55
2023/07/12 07:28:41;;;;;;;13.27;3.97;;;20.00;99.90;;;;;;5018942;28;20049;-56
2023/07/12 07:31:07;;;;;;;15.35;3.80;;;20.10;99.90;;;;;;5017778;28;20048;-56
2023/07/12 07:33:33;;;;;;;16.35;4.88;;;20.10;99.90;;;;;;5017757;28;20042;-56
2023/07/12 07:35:59;;;;;;;12.05;4.05;;;20.10;99.90;;;;;;5014290;28;20065;-55
2023/07/12 07:38:27;;;;;;;13.32;3.58;;;20.20;99.90;;;;;;5016912;28;20038;-56
2023/07/12 07:40:55;;;;;;;12.32;3.78;;;20.20;99.90;;;;;;5017913;28;20502;-56
2023/07/12 07:43:21;;;;;;;14.95;4.32;;;20.40;99.90;;;;;;5016954;28;20128;-56
2023/07/12 07:45:47;;;;;;;16.25;4.05;;;20.50;99.90;;;;;;5018705;28;20050;-54
2023/07/12 07:48:15;;;;;;;14.00;3.60;;;20.70;99.90;;;;;;5017825;28;20073;-56
2023/07/12 07:50:42;;;;;;;17.45;4.43;;;20.80;99.90;;;;;;5011595;28;20052;-56
2023/07/12 07:53:08;;;;;;;11.23;3.65;;;20.70;99.90;;;;;;5011684;28;20053;-52
2023/07/12 07:55:34;;;;;;;17.85;4.00;;;20.60;99.90;;;;;;5006192;28;20132;-54
2023/07/12 07:58:00;;;;;;;15.75;3.72;;;20.50;99.90;;;;;;5020095;28;20045;-53
2023/07/12 08:00:26;;;;;;;16.98;4.00;;;20.40;99.90;;;;;;5021512;28;20107;-56
2023/07/12 08:02:53;;;;;;;18.52;3.78;;;20.30;99.90;;;;;;5018980;28;20494;-53
2023/07/12 08:05:19;;;;;;;21.65;4.13;;;20.30;99.90;;;;;;5018153;28;20041;-56
2023/07/12 08:07:48;;;;;;;11.95;3.58;;;20.10;99.90;;;;;;5013486;28;20042;-56
2023/07/12 08:10:17;;;;;;;13.30;4.00;;;20.00;99.90;;;;;;5019157;28;20099;-53
2023/07/12 08:12:44;;;;;;;12.25;3.90;;;20.00;99.90;;;;;;5017979;28;20049;-54
2023/07/12 08:15:10;;;;;;;11.55;4.03;;;19.90;99.90;;;;;;5017103;28;20549;-56
2023/07/12 08:17:36;;;;;;;11.05;3.38;;;19.90;99.90;;;;;;5016487;28;20043;-56
2023/07/12 08:20:04;;;;;;;12.95;3.45;;;19.80;99.90;;;;;;5016346;28;20057;-56
2023/07/12 08:22:31;;;;;;;14.40;3.63;;;19.70;99.90;;;;;;5019262;28;20120;-57
2023/07/12 08:24:57;;;;;;;11.13;2.88;;;19.60;99.90;;;;;;5018225;28;20065;-53
2023/07/12 08:27:22;;;;;;;11.07;2.83;;;19.50;99.90;;;;;;5017495;28;20041;-53
2023/07/12 08:29:48;;;;;;;7.53;3.00;;;19.50;99.90;;;;;;5019563;28;20130;-56
2023/07/12 08:32:14;;;;;;;7.93;2.60;;;19.40;99.90;;;;;;5017535;28;20049;-56
2023/07/12 08:34:40;;;;;;;8.40;2.67;;;19.40;99.90;;;;;;5016331;28;20048;-56
2023/07/12 08:37:06;;;;;;;8.05;3.00;;;19.30;99.90;;;;;;5016917;28;20411;-56
2023/07/12 08:39:32;;;;;;;10.75;2.90;;;19.40;99.90;;;;;;5015880;28;20060;-54
2023/07/12 08:41:59;;;;;;;8.15;2.80;;;19.50;99.90;;;;;;5017732;28;20041;-55
2023/07/12 08:44:26;;;;;;;10.77;3.55;;;19.60;99.90;;;;;;5017155;28;20073;-57
2023/07/12 08:46:57;;;;;;;10.27;3.50;;;19.60;99.90;;;;;;5018569;28;20088;-56
2023/07/12 08:49:24;;;;;;;9.82;3.45;;;19.70;99.90;;;;;;5018215;28;20466;-55
2023/07/12 08:51:55;;;;;;;13.68;3.63;;;19.80;99.90;;;;;;5017970;28;20048;-55
2023/07/12 08:54:24;;;;;;;11.98;3.50;;;19.90;99.90;;;;;;5007484;28;20084;-55
2023/07/12 08:57:22;;;;;;;13.73;3.78;;;19.90;99.90;;;;;;5008908;28;20057;-55
2023/07/12 09:00:20;;;;;;;11.70;3.90;;;20.00;99.90;;;;;;5015886;28;20072;-56
2023/07/12 09:02:46;;;;;;;15.27;3.67;;;20.00;99.90;;;;;;5015469;28;20850;-56
2023/07/12 09:05:19;;;;;;;11.80;3.45;;;20.00;99.90;;;;;;5016926;28;20491;-56
2023/07/12 09:08:09;;;;;;;11.43;3.28;;;20.10;99.90;;;;;;5015465;28;20543;-57
2023/07/12 09:11:01;;;;;;;9.10;3.10;;;20.20;99.90;;;;;;5016158;28;20045;-56
2023/07/12 09:13:36;;;;;;;9.02;3.00;;;20.30;99.90;;;;;;5014787;28;20050;-56
2023/07/12 09:16:04;;;;;;;10.27;3.45;;;20.50;99.90;;;;;;5003024;28;20046;-53
2023/07/12 09:18:36;;;;;;;10.38;3.33;;;20.70;99.90;;;;;;5014890;28;20049;-55
2023/07/12 09:21:35;;;;;;;7.82;2.90;;;20.90;99.90;;;;;;5011394;28;20373;-56
2023/07/12 09:24:09;;;;;;;7.50;2.38;;;21.20;99.90;;;;;;5006019;28;20049;-55
2023/07/12 09:26:35;;;;;;;9.60;2.70;;;21.30;99.90;;;;;;5015840;28;20124;-57
2023/07/12 09:29:13;;;;;;;7.68;2.40;;;21.30;99.90;;;;;;5016495;28;20132;-55
2023/07/12 09:31:40;;;;;;;8.73;2.47;;;21.20;99.90;;;;;;5014129;28;20041;-57
2023/07/12 09:34:15;;;;;;;9.45;2.58;;;21.40;99.90;;;;;;5016041;28;20368;-56
2023/07/12 09:36:40;;;;;;;8.43;2.53;;;21.60;99.90;;;;;;5014864;28;20083;-55
2023/07/12 09:39:10;;;;;;;8.05;2.50;;;21.70;99.90;;;;;;5015793;28;20577;-54
2023/07/12 09:41:47;;;;;;;5.63;2.10;;;21.70;99.90;;;;;;5016403;28;20053;-56
2023/07/12 09:44:14;;;;;;;7.15;2.65;;;21.60;99.90;;;;;;5015671;28;20053;-57
2023/07/12 09:46:53;;;;;;;9.63;2.83;;;21.60;99.90;;;;;;4999067;28;20054;-56
2023/07/12 09:49:49;;;;;;;7.32;2.20;;;21.60;99.90;;;;;;5013808;28;20407;-56
2023/07/12 09:52:24;;;;;;;6.07;2.13;;;21.80;99.90;;;;;;5017310;28;20132;-56
2023/07/12 09:55:07;;;;;;;8.18;2.40;;;21.70;99.90;;;;;;5014585;28;20046;-54
2023/07/12 09:57:47;;;;;;;;;;;21.90;99.90;;;;;;5009049;28;20095;-55
2023/07/12 10:00:29;;;;;;;11.93;2.80;;;22.10;99.90;;;;;;5016081;28;19925;-54
2023/07/12 10:03:20;;;;;;;6.93;2.08;;;22.10;99.90;;;;;;5004004;28;20053;-57
2023/07/12 10:06:14;;;;;;;4.80;2.08;;;22.00;99.90;;;;;;5018734;28;20064;-56
2023/07/12 10:08:50;;;;;;;4.43;2.03;;;22.00;99.90;;;;;;5016280;28;20044;-57
2023/07/12 10:11:43;;;;;;;8.27;2.50;;;22.10;99.90;;;;;;5016813;28;20037;-56
2023/07/12 10:14:12;;;;;;;5.28;2.10;;;22.10;99.90;;;;;;5017839;28;20095;-55
2023/07/12 10:16:45;;;;;;;8.32;2.10;;;22.30;99.90;;;;;;5016463;28;20489;-56
2023/07/12 10:19:40;;;;;;;5.72;2.17;;;22.50;99.90;;;;;;4999775;28;20395;-56
2023/07/12 10:22:19;;;;;;;6.10;2.00;;;22.70;99.90;;;;;;5015951;28;20072;-56
2023/07/12 10:24:50;;;;;;;6.03;2.30;;;22.70;99.90;;;;;;5015427;28;20069;-55
2023/07/12 10:27:22;;;;;;;6.90;2.10;;;22.60;99.90;;;;;;5012779;28;20053;-54
2023/07/12 10:29:57;;;;;;;6.80;1.90;;;22.60;99.90;;;;;;5016718;28;20085;-56
2023/07/12 10:32:29;;;;;;;4.43;1.70;;;22.80;99.90;;;;;;5012560;28;21114;-56
2023/07/12 10:35:03;;;;;;;5.63;1.77;;;23.00;99.80;;;;;;5013419;28;20050;-57
2023/07/12 10:37:42;;;;;;;5.60;1.80;;;23.10;99.20;;;;;;5016489;28;20188;-53
2023/07/12 10:40:18;;;;;;;5.90;1.95;;;23.20;99.20;;;;;;5015991;28;20055;-55
2023/07/12 10:42:57;;;;;;;5.40;1.60;;;23.30;98.80;;;;;;5013946;28;20123;-56
2023/07/12 10:45:31;;;;;;;4.32;1.60;;;23.10;97.80;;;;;;5016348;28;20046;-56
2023/07/12 10:47:58;;;;;;;9.02;1.45;;;23.10;98.20;;;;;;5015231;28;20072;-56
2023/07/12 10:50:48;;;;;;;6.97;1.58;;;23.20;98.10;;;;;;4998845;28;20057;-56
2023/07/12 10:53:21;;;;;;;5.55;1.65;;;23.30;98.10;;;;;;5004321;28;20132;-54
2023/07/12 10:56:07;;;;;;;;;;;23.40;98.10;;;;;;5014572;28;20056;-56
2023/07/12 10:58:57;;;;;;;6.53;1.73;;;23.60;98.10;;;;;;5001850;28;19921;-56
2023/07/12 11:01:40;;;;;;;3.40;1.58;;;23.90;97.70;;;;;;5017517;28;20041;-55
2023/07/12 11:04:11;;;;;;;6.45;1.90;;;24.30;97.70;;;;;;5006666;28;20140;-56
2023/07/12 11:06:56;;;;;;;5.05;1.85;;;24.50;96.90;;;;;;5018152;28;20123;-56
2023/07/12 11:09:22;;;;;;;4.25;1.50;;;24.70;96.60;;;;;;5017924;28;20045;-55
2023/07/12 11:12:05;;;;;;;9.45;1.30;;;25.00;95.20;;;;;;5013657;28;20046;-55
2023/07/12 11:14:37;;;;;;;9.98;1.77;;;24.90;93.70;;;;;;5007570;28;20069;-56
2023/07/12 11:17:09;;;;;;;4.57;1.27;;;24.70;92.90;;;;;;5014235;28;20041;-56
2023/07/12 11:19:40;;;;;;;4.35;1.30;;;24.70;93.10;;;;;;5014079;28;20038;-55
2023/07/12 11:22:18;;;;;;;3.03;1.30;;;24.80;92.90;;;;;;5018743;28;20110;-56
2023/07/12 11:25:21;;;;;;;4.82;1.13;;;25.00;92.50;;;;;;5020436;28;20068;-57
2023/07/12 11:27:53;;;;;;;6.13;1.48;;;25.10;92.10;;;;;;5021873;28;20111;-55
2023/07/12 11:30:26;;;;;;;4.30;1.30;;;25.10;91.10;;;;;;5018784;28;20053;-56
2023/07/12 11:33:21;;;;;;;5.03;1.58;;;25.20;90.50;;;;;;5019948;28;20052;-55
2023/07/12 11:35:53;;;;;;;5.35;1.60;;;25.30;90.60;;;;;;5020353;28;20155;-57
2023/07/12 11:38:32;;;;;;;4.05;1.02;;;25.40;90.30;;;;;;5005349;28;20041;-56
2023/07/12 11:41:04;;;;;;;2.28;1.00;;;25.60;88.40;;;;;;5017990;28;20883;-55
2023/07/12 11:43:32;;;;;;;5.40;1.25;;;25.80;88.80;;;;;;5022204;28;20076;-57
2023/07/12 11:46:00;;;;;;;5.40;1.52;;;25.90;86.80;;;;;;5022951;28;20072;-56
2023/07/12 11:48:31;;;;;;;3.97;1.45;;;25.90;85.40;;;;;;5021847;28;20037;-56
2023/07/12 11:51:04;;;;;;;4.00;1.15;;;25.60;84.50;;;;;;5020210;28;20514;-54
2023/07/12 11:53:30;;;;;;;4.70;1.50;;;25.30;83.50;;;;;;5017738;28;20506;-55
2023/07/12 11:55:56;;;;;;;3.88;1.30;;;25.20;84.50;;;;;;5016814;28;20030;-53
2023/07/12 11:58:24;;;;;;;3.92;1.27;;;25.30;84.60;;;;;;5019932;28;20068;-56
2023/07/12 12:00:51;;;;;;;4.30;1.23;;;25.20;82.70;;;;;;5019761;28;20160;-56
2023/07/12 12:03:18;;;;;;;6.35;1.15;;;24.90;82.50;;;;;;5017496;28;20809;-57
2023/07/12 12:05:44;;;;;;;3.92;1.13;;;24.60;83.00;;;;;;5015705;28;20057;-57
2023/07/12 12:08:27;;;;;;;4.88;1.50;;;24.60;83.10;;;;;;5017043;28;20077;-56
2023/07/12 12:10:54;;;;;;;2.40;0.77;;;24.70;82.70;;;;;;5015976;28;20041;-56
2023/07/12 12:13:20;;;;;;;5.10;1.20;;;25.00;82.50;;;;;;5010576;28;20054;-56
2023/07/12 12:16:01;;;;;;;2.70;1.00;;;25.20;81.50;;;;;;5019295;28;20111;-57
2023/07/12 12:18:27;;;;;;;3.45;1.13;;;25.40;81.50;;;;;;5017476;28;20115;-55
2023/07/12 12:21:01;;;;;;;2.50;1.00;;;25.60;81.30;;;;;;5016627;28;20100;-55
2023/07/12 12:23:39;;;;;;;3.90;1.27;;;25.90;80.70;;;;;;5010336;28;20176;-57
2023/07/12 12:26:24;;;;;;;10.93;1.35;;;26.20;79.60;;;;;;5018801;28;20053;-56
2023/07/12 12:28:57;;;;;;;5.03;1.15;;;26.40;79.50;;;;;;5018226;28;20083;-56
2023/07/12 12:31:25;;;;;;;4.25;0.90;;;26.50;78.10;;;;;;5018288;28;21427;-55
2023/07/12 12:34:15;;;;;;;3.30;0.70;;;26.50;74.50;;;;;;5019052;28;22403;-57
2023/07/12 12:36:57;;;;;;;3.17;0.75;;;26.50;74.00;;;;;;5016671;28;20060;-56
2023/07/12 12:39:23;;;;;;;4.68;0.90;;;26.50;73.20;;;;;;5018419;28;20428;-55
2023/07/12 12:41:54;;;;;;;2.35;0.90;;;26.50;72.80;;;;;;5019051;28;20053;-57
2023/07/12 12:44:26;;;;;;;3.47;0.95;;;26.50;72.10;;;;;;5020849;28;20046;-54
2023/07/12 12:46:55;;;;;;;3.00;0.90;;;26.50;71.60;;;;;;5021705;28;20095;-57
2023/07/12 12:49:27;;;;;;;1.73;0.68;;;26.50;70.40;;;;;;5019260;28;20782;-56
2023/07/12 12:51:55;;;;;;;2.50;0.70;;;26.50;69.00;;;;;;5019869;28;20034;-57
2023/07/12 12:54:24;;;;;;;7.30;0.82;;;26.60;69.40;;;;;;5016777;28;20057;-54